createdAt,value
2018-06-04T00:00:08.612Z,19.10
2018-06-04T00:02:37.449Z,19.10
2018-06-04T00:05:06.490Z,19.10
2018-06-04T00:07:35.370Z,19.10
2018-06-04T00:10:04.310Z,19.00
2018-06-04T00:12:33.133Z,19.00
2018-06-04T00:17:30.409Z,18.90
2018-06-04T00:22:27.780Z,18.80
2018-06-04T00:27:25.110Z,18.70
2018-06-04T00:29:53.953Z,18.60
2018-06-04T00:32:22.933Z,18.60
2018-06-04T00:34:51.729Z,18.50
2018-06-04T00:37:25.739Z,18.50
2018-06-04T00:39:54.659Z,18.40
2018-06-04T00:44:52.029Z,18.20
2018-06-04T00:47:21.757Z,18.20
2018-06-04T00:49:51.989Z,18.10
2018-06-04T00:52:20.904Z,18.10
2018-06-04T00:54:49.819Z,18.10
2018-06-04T00:57:18.759Z,18.00
2018-06-04T00:59:47.649Z,18.00
2018-06-04T01:02:17.659Z,18.00
2018-06-04T01:04:46.580Z,18.00
2018-06-04T01:07:15.493Z,18.00
2018-06-04T01:09:44.399Z,18.00
2018-06-04T01:14:46.038Z,18.00
2018-06-04T01:17:14.857Z,18.00
2018-06-04T01:22:13.596Z,18.00
2018-06-04T01:24:42.499Z,17.90
2018-06-04T01:27:11.399Z,17.80
2018-06-04T01:29:41.294Z,17.80
2018-06-04T01:32:15.297Z,17.80
2018-06-04T01:34:44.618Z,17.80
2018-06-04T01:37:13.489Z,17.80
2018-06-04T01:39:42.410Z,17.70
2018-06-04T01:42:11.276Z,17.70
2018-06-04T01:44:40.270Z,17.70
2018-06-04T01:47:15.531Z,17.60
2018-06-04T01:49:44.452Z,17.60
2018-06-04T01:52:13.379Z,17.60
2018-06-04T01:54:44.395Z,17.60
2018-06-04T01:57:17.957Z,17.50
2018-06-04T01:59:47.821Z,17.50
2018-06-04T02:02:16.769Z,17.50
2018-06-04T02:04:45.761Z,17.50
2018-06-04T02:07:14.730Z,17.50
2018-06-04T02:09:43.614Z,17.40
2018-06-04T02:12:12.569Z,17.40
2018-06-04T02:14:41.470Z,17.40
2018-06-04T02:17:10.377Z,17.40
2018-06-04T02:19:39.350Z,17.40
2018-06-04T02:22:08.299Z,17.40
2018-06-04T02:24:37.283Z,17.30
2018-06-04T02:27:08.093Z,17.20
2018-06-04T02:29:36.960Z,17.10
2018-06-04T02:32:05.960Z,17.10
2018-06-04T02:34:34.801Z,17.10
2018-06-04T02:37:07.270Z,17.10
2018-06-04T02:39:36.221Z,17.10
2018-06-04T02:42:05.238Z,17.10
2018-06-04T02:44:34.480Z,17.00
2018-06-04T02:49:32.050Z,17.00
2018-06-04T02:54:35.919Z,16.90
2018-06-04T02:57:04.900Z,16.80
2018-06-04T02:59:33.798Z,16.80
2018-06-04T03:02:02.761Z,16.80
2018-06-04T03:04:31.701Z,16.80
2018-06-04T03:07:00.730Z,16.80
2018-06-04T03:11:58.110Z,16.80
2018-06-04T03:14:33.501Z,16.80
2018-06-04T03:17:04.848Z,16.70
2018-06-04T03:19:33.810Z,16.50
2018-06-04T03:22:02.689Z,16.50
2018-06-04T03:24:33.358Z,16.50
2018-06-04T03:27:02.248Z,16.50
2018-06-04T03:29:31.132Z,16.60
2018-06-04T03:32:00.092Z,16.50
2018-06-04T03:34:29.000Z,16.60
2018-06-04T03:36:59.579Z,16.60
2018-06-04T03:39:30.085Z,16.50
2018-06-04T03:41:59.035Z,16.50
2018-06-04T03:44:28.090Z,16.40
2018-06-04T03:46:57.001Z,16.30
2018-06-04T03:51:58.371Z,16.20
2018-06-04T03:54:27.296Z,16.20
2018-06-04T03:56:59.677Z,16.10
2018-06-04T03:59:28.597Z,16.10
2018-06-04T04:01:57.525Z,15.90
2018-06-04T04:04:26.389Z,15.80
2018-06-04T04:09:26.522Z,15.80
2018-06-04T04:14:23.987Z,15.70
2018-06-04T04:16:52.823Z,15.70
2018-06-04T04:19:21.760Z,15.70
2018-06-04T04:21:50.665Z,15.70
2018-06-04T04:24:19.626Z,15.60
2018-06-04T04:26:48.583Z,15.60
2018-06-04T04:29:17.509Z,15.60
2018-06-04T04:31:57.394Z,15.60
2018-06-04T04:34:26.279Z,15.60
2018-06-04T04:39:25.238Z,15.80
2018-06-04T04:41:56.171Z,15.80
2018-06-04T04:44:25.209Z,15.80
2018-06-04T04:46:54.225Z,15.80
2018-06-04T04:49:23.804Z,15.80
2018-06-04T04:51:52.720Z,15.80
2018-06-04T04:54:21.673Z,15.80
2018-06-04T04:56:50.943Z,15.80
2018-06-04T04:59:19.820Z,15.80
2018-06-04T05:01:48.769Z,15.80
2018-06-04T05:04:17.777Z,15.80
2018-06-04T05:06:46.617Z,15.80
2018-06-04T05:09:15.671Z,15.80
2018-06-04T05:11:44.543Z,15.80
2018-06-04T05:19:33.346Z,15.70
2018-06-04T05:24:33.992Z,15.60
2018-06-04T05:27:02.830Z,15.50
2018-06-04T05:29:31.678Z,15.60
2018-06-04T05:32:00.504Z,15.50
2018-06-04T05:34:29.331Z,15.60
2018-06-04T05:39:26.694Z,15.70
2018-06-04T05:44:23.972Z,15.80
2018-06-04T05:51:50.137Z,15.90
2018-06-04T05:54:19.011Z,16.00
2018-06-04T05:56:47.824Z,16.00
2018-06-04T05:59:16.687Z,16.10
2018-06-04T06:01:45.651Z,16.20
2018-06-04T06:04:14.470Z,16.40
2018-06-04T06:14:08.736Z,16.60
2018-06-04T06:16:37.567Z,16.70
2018-06-04T06:19:06.416Z,16.80
2018-06-04T06:21:35.308Z,16.80
2018-06-04T06:24:04.128Z,16.90
2018-06-04T06:26:32.983Z,17.00
2018-06-04T06:29:01.810Z,17.10
2018-06-04T06:31:30.679Z,17.10
2018-06-04T06:33:59.557Z,17.20
2018-06-04T06:36:28.378Z,17.30
2018-06-04T06:38:57.289Z,17.30
2018-06-04T06:43:57.613Z,17.50
2018-06-04T06:46:26.469Z,17.50
2018-06-04T06:48:55.273Z,17.60
2018-06-04T06:51:24.137Z,17.70
2018-06-04T06:53:53.040Z,17.70
2018-06-04T06:56:21.851Z,17.80
2018-06-04T06:58:50.722Z,17.80
2018-06-04T07:01:19.610Z,17.90
2018-06-04T07:03:48.436Z,17.90
2018-06-04T07:06:17.285Z,18.00
2018-06-04T07:08:46.099Z,18.10
2018-06-04T07:11:15.001Z,18.10
2018-06-04T07:13:43.855Z,18.20
2018-06-04T07:16:12.700Z,18.30
2018-06-04T07:18:41.557Z,18.30
2018-06-04T07:21:10.440Z,18.40
2018-06-04T07:23:39.260Z,18.50
2018-06-04T07:26:08.140Z,18.50
2018-06-04T07:28:37.002Z,18.60
2018-06-04T07:31:05.849Z,18.60
2018-06-04T07:33:34.754Z,18.70
2018-06-04T07:36:10.505Z,18.80
2018-06-04T07:38:39.530Z,18.80
2018-06-04T07:41:08.396Z,18.90
2018-06-04T07:43:37.276Z,18.90
2018-06-04T07:46:06.109Z,19.00
2018-06-04T07:48:34.943Z,19.00
2018-06-04T07:51:03.819Z,19.00
2018-06-04T07:53:32.651Z,19.10
2018-06-04T07:56:01.522Z,19.20
2018-06-04T07:58:30.380Z,19.20
2018-06-04T08:00:59.206Z,19.30
2018-06-04T08:03:28.073Z,19.30
2018-06-04T08:05:56.910Z,19.40
2018-06-04T08:08:25.769Z,19.50
2018-06-04T08:11:01.041Z,19.50
2018-06-04T08:13:29.934Z,19.60
2018-06-04T08:15:58.780Z,19.70
2018-06-04T08:18:27.617Z,19.80
2018-06-04T08:20:56.433Z,19.90
2018-06-04T08:28:22.175Z,20.10
2018-06-04T08:33:19.465Z,20.30
2018-06-04T08:35:48.314Z,20.30
2018-06-04T08:38:17.138Z,20.40
2018-06-04T08:40:46.010Z,20.50
2018-06-04T08:45:43.334Z,20.60
2018-06-04T08:48:12.145Z,20.70
2018-06-04T08:50:41.040Z,20.80
2018-06-04T08:53:09.914Z,20.80
2018-06-04T08:55:38.789Z,20.90
2018-06-04T08:58:07.763Z,20.90
2018-06-04T09:00:36.673Z,21.10
2018-06-04T09:03:05.500Z,21.20
2018-06-04T09:08:02.784Z,21.40
2018-06-04T09:10:31.710Z,21.40
2018-06-04T09:13:00.518Z,21.50
2018-06-04T09:15:29.372Z,21.60
2018-06-04T09:17:58.212Z,21.70
2018-06-04T09:20:27.082Z,21.80
2018-06-04T09:22:55.930Z,21.90
2018-06-04T09:25:24.838Z,22.00
2018-06-04T09:27:53.731Z,22.10
2018-06-04T09:30:22.770Z,22.20
2018-06-04T09:32:51.678Z,22.30
2018-06-04T09:37:49.527Z,22.60
2018-06-04T09:40:18.410Z,22.70
2018-06-04T09:42:47.324Z,22.80
2018-06-04T10:19:13.613Z,25.10
2018-06-04T10:21:42.982Z,25.80
2018-06-04T10:24:11.860Z,26.80
2018-06-04T10:26:40.746Z,27.60
2018-06-04T10:29:09.617Z,28.30
2018-06-04T10:31:38.493Z,28.80
2018-06-04T10:34:07.359Z,29.30
2018-06-04T10:36:36.200Z,29.80
2018-06-04T10:39:07.320Z,30.20
2018-06-04T10:41:36.194Z,30.40
2018-06-04T10:44:05.412Z,30.70
2018-06-04T10:46:34.292Z,30.90
2018-06-04T10:49:03.228Z,31.00
2018-06-04T10:51:32.092Z,31.20
2018-06-04T10:54:00.918Z,31.30
2018-06-04T10:56:29.725Z,31.30
2018-06-04T10:58:58.569Z,31.50
2018-06-04T11:01:27.383Z,31.50
2018-06-04T11:03:56.239Z,31.70
2018-06-04T11:06:25.076Z,31.70
2018-06-04T11:08:53.990Z,31.80
2018-06-04T11:11:22.885Z,31.70
2018-06-04T11:13:51.747Z,32.00
2018-06-04T11:16:20.628Z,32.20
2018-06-04T11:18:49.581Z,32.20
2018-06-04T11:21:18.380Z,32.10
2018-06-04T11:26:15.688Z,32.10
2018-06-04T11:28:44.584Z,32.20
2018-06-04T11:31:13.427Z,32.30
2018-06-04T11:33:42.333Z,32.20
2018-06-04T11:36:11.211Z,32.20
2018-06-04T11:38:40.141Z,32.20
2018-06-04T11:41:09.010Z,32.20
2018-06-04T11:43:37.890Z,32.10
2018-06-04T11:48:35.251Z,32.60
2018-06-04T11:53:32.738Z,32.90
2018-06-04T11:56:01.630Z,32.30
2018-06-04T11:58:30.771Z,31.40
2018-06-04T12:00:59.662Z,30.70
2018-06-04T12:03:28.582Z,30.10
2018-06-04T12:05:57.469Z,29.70
2018-06-04T12:08:26.315Z,29.40
2018-06-04T12:10:55.172Z,29.20
2018-06-04T12:13:24.027Z,29.00
2018-06-04T12:15:52.888Z,28.90
2018-06-04T12:18:21.780Z,28.90
2018-06-04T12:20:50.648Z,28.80
2018-06-04T12:23:19.492Z,28.80
2018-06-04T12:25:48.340Z,28.80
2018-06-04T12:28:17.267Z,28.90
2018-06-04T12:30:46.270Z,28.90
2018-06-04T12:33:15.147Z,29.00
2018-06-04T12:35:44.029Z,29.00
2018-06-04T12:38:12.989Z,29.00
2018-06-04T12:40:41.905Z,29.10
2018-06-04T12:43:10.868Z,29.10
2018-06-04T12:45:39.837Z,29.10
2018-06-04T12:48:08.679Z,29.20
2018-06-04T12:50:37.560Z,29.10
2018-06-04T12:53:06.411Z,29.20
2018-06-04T12:55:35.263Z,29.20
2018-06-04T12:58:04.083Z,29.30
2018-06-04T13:00:33.041Z,29.40
2018-06-04T13:03:02.146Z,29.40
2018-06-04T13:05:31.060Z,29.50
2018-06-04T13:07:59.899Z,29.50
2018-06-04T13:10:28.772Z,29.60
2018-06-04T13:12:57.619Z,29.60
2018-06-04T13:17:54.997Z,29.70
2018-06-04T13:20:23.925Z,29.80
2018-06-04T13:22:52.756Z,29.80
2018-06-04T13:25:21.651Z,29.80
2018-06-04T13:27:50.535Z,29.70
2018-06-04T13:30:19.387Z,29.60
2018-06-04T13:32:48.237Z,29.50
2018-06-04T13:35:17.132Z,29.40
2018-06-04T13:37:45.973Z,29.20
2018-06-04T13:40:14.890Z,29.10
2018-06-04T13:45:14.260Z,29.00
2018-06-04T13:47:43.131Z,29.10
2018-06-04T13:50:12.496Z,29.20
2018-06-04T13:55:09.789Z,29.30
2018-06-04T13:57:38.598Z,29.30
2018-06-04T14:00:07.468Z,29.30
2018-06-04T14:02:36.309Z,29.40
2018-06-04T14:05:05.175Z,29.50
2018-06-04T14:07:34.041Z,29.60
2018-06-04T14:10:02.896Z,29.70
2018-06-04T14:15:01.104Z,29.60
2018-06-04T14:17:30.543Z,29.50
2018-06-04T14:19:59.407Z,29.30
2018-06-04T14:22:28.247Z,29.10
2018-06-04T14:24:57.125Z,29.00
2018-06-04T14:27:25.997Z,29.00
2018-06-04T14:29:54.891Z,28.90
2018-06-04T14:32:23.744Z,28.90
2018-06-04T14:34:52.712Z,28.80
2018-06-04T14:37:21.536Z,28.70
2018-06-04T14:39:50.373Z,28.60
2018-06-04T14:42:19.189Z,28.50
2018-06-04T14:44:48.292Z,28.50
2018-06-04T14:47:17.158Z,28.40
2018-06-04T14:49:46.286Z,28.30
2018-06-04T14:52:15.110Z,28.20
2018-06-04T14:54:43.937Z,28.20
2018-06-04T14:59:41.285Z,28.10
2018-06-04T15:02:10.126Z,28.00
2018-06-04T15:04:38.981Z,27.90
2018-06-04T15:07:07.807Z,27.90
2018-06-04T15:09:36.639Z,27.80
2018-06-04T15:12:05.514Z,27.70
2018-06-04T15:14:34.377Z,27.60
2018-06-04T15:17:03.265Z,27.50
2018-06-04T15:19:32.357Z,27.40
2018-06-04T15:22:01.276Z,27.30
2018-06-04T15:24:30.172Z,27.20
2018-06-04T15:26:59.326Z,27.00
2018-06-04T15:29:28.309Z,26.90
2018-06-04T15:31:57.274Z,26.70
2018-06-04T15:36:54.854Z,26.30
2018-06-04T15:39:24.222Z,26.30
2018-06-04T15:41:53.219Z,26.10
2018-06-04T15:44:22.276Z,25.90
2018-06-04T15:46:52.188Z,25.70
2018-06-04T15:49:21.070Z,25.50
2018-06-04T15:51:50.157Z,25.30
2018-06-04T15:54:19.057Z,25.20
2018-06-04T15:56:48.537Z,25.20
2018-06-04T15:59:17.422Z,25.20
2018-06-04T16:01:46.430Z,25.20
2018-06-04T16:06:43.880Z,25.20
2018-06-04T16:09:12.911Z,25.10
2018-06-04T16:11:42.091Z,25.20
2018-06-04T16:16:39.689Z,24.90
2018-06-04T16:19:08.781Z,24.80
2018-06-04T16:21:37.764Z,24.60
2018-06-04T16:24:06.854Z,24.50
2018-06-04T16:29:04.419Z,24.10
2018-06-04T16:34:02.464Z,23.80
2018-06-04T16:36:31.563Z,23.70
2018-06-04T16:39:00.976Z,23.60
2018-06-04T16:41:30.124Z,23.50
2018-06-04T16:43:59.608Z,23.50
2018-06-04T16:53:57.082Z,23.10
2018-06-04T16:56:26.584Z,23.00
2018-06-04T16:58:56.007Z,23.00
2018-06-04T17:03:53.603Z,22.90
2018-06-04T17:06:22.550Z,22.90
2018-06-04T17:08:51.638Z,22.80
2018-06-04T17:11:22.200Z,22.80
2018-06-04T17:16:19.516Z,22.60
2018-06-04T17:18:48.390Z,22.60
2018-06-04T17:21:17.617Z,22.60
2018-06-04T17:23:46.475Z,22.60
2018-06-04T17:26:15.337Z,22.60
2018-06-04T17:31:12.750Z,22.40
2018-06-04T17:33:41.669Z,22.40
2018-06-04T17:36:10.584Z,22.40
2018-06-04T17:38:39.866Z,22.50
2018-06-04T17:41:10.364Z,22.50
2018-06-04T17:43:40.250Z,22.40
2018-06-04T17:46:09.421Z,22.40
2018-06-04T17:48:38.335Z,22.40
2018-06-04T17:51:07.274Z,22.30
2018-06-04T17:53:36.238Z,22.30
2018-06-04T17:56:05.150Z,22.20
2018-06-04T17:58:34.028Z,22.20
2018-06-04T18:01:02.879Z,22.20
2018-06-04T18:06:00.247Z,22.20
2018-06-04T18:11:02.913Z,22.10
2018-06-04T18:13:34.910Z,22.10
2018-06-04T18:16:04.891Z,22.10
2018-06-04T18:18:34.015Z,22.10
2018-06-04T18:23:35.878Z,21.90
2018-06-04T18:28:35.390Z,21.50
2018-06-04T18:31:04.381Z,21.40
2018-06-04T18:33:34.075Z,21.30
2018-06-04T18:36:02.929Z,21.10
2018-06-04T18:38:31.809Z,20.90
2018-06-04T18:41:00.735Z,20.80
2018-06-04T18:43:30.033Z,20.70
2018-06-04T18:46:02.120Z,20.60
2018-06-04T18:48:31.299Z,20.50
2018-06-04T18:51:00.273Z,20.60
2018-06-04T18:53:30.403Z,20.50
2018-06-04T18:55:59.346Z,20.40
2018-06-04T19:00:56.803Z,20.20
2018-06-04T19:03:26.440Z,20.10
2018-06-04T19:05:55.589Z,20.00
2018-06-04T19:08:25.359Z,19.80
2018-06-04T19:10:54.399Z,19.70
2018-06-04T19:13:23.260Z,19.50
2018-06-04T19:15:52.149Z,19.40
2018-06-04T19:18:21.059Z,19.30
2018-06-04T19:20:50.051Z,19.30
2018-06-04T19:23:18.936Z,19.20
2018-06-04T19:25:47.900Z,19.20
2018-06-04T19:28:16.780Z,19.10
2018-06-04T19:30:45.645Z,19.10
2018-06-04T19:33:14.564Z,19.10
2018-06-04T19:35:43.417Z,19.10
2018-06-04T19:38:12.280Z,19.10
2018-06-04T19:40:42.048Z,19.10
2018-06-04T19:43:10.918Z,19.10
2018-06-04T19:48:08.396Z,19.20
2018-06-04T19:50:45.129Z,19.30
2018-06-04T19:53:14.776Z,19.40
2018-06-04T19:55:43.705Z,19.50
2018-06-04T19:58:12.540Z,19.50
2018-06-04T20:00:41.470Z,19.60
2018-06-04T20:03:10.328Z,19.60
2018-06-04T20:08:07.654Z,19.70
2018-06-04T20:10:36.479Z,19.70
2018-06-04T20:15:33.859Z,19.80
2018-06-04T20:18:02.827Z,19.80
2018-06-04T20:20:31.803Z,19.80
2018-06-04T20:23:00.724Z,19.80
2018-06-04T20:30:26.694Z,19.70
2018-06-04T20:32:55.590Z,19.70
2018-06-04T20:35:24.589Z,19.70
2018-06-04T20:37:53.467Z,19.70
2018-06-04T20:40:22.381Z,19.70
2018-06-04T20:42:51.271Z,19.60
2018-06-04T20:45:20.163Z,19.60
2018-06-04T20:47:49.070Z,19.40
2018-06-04T20:50:18.015Z,19.40
2018-06-04T20:55:15.460Z,19.30
2018-06-04T20:57:44.298Z,19.10
2018-06-04T21:00:13.242Z,19.10
2018-06-04T21:02:42.104Z,19.00
2018-06-04T21:05:11.014Z,18.90
2018-06-04T21:07:39.925Z,18.80
2018-06-04T21:12:37.259Z,18.60
2018-06-04T21:15:06.250Z,18.60
2018-06-04T21:17:35.119Z,18.60
2018-06-04T21:20:04.156Z,18.50
2018-06-04T21:22:33.040Z,18.40
2018-06-04T21:25:01.920Z,18.30
2018-06-04T21:27:30.769Z,18.20
2018-06-04T21:29:59.669Z,18.20
2018-06-04T21:32:28.561Z,18.10
2018-06-04T21:34:57.396Z,18.10
2018-06-04T21:37:26.247Z,18.00
2018-06-04T21:39:55.072Z,18.00
2018-06-04T21:42:23.971Z,17.90
2018-06-04T21:44:52.875Z,17.90
2018-06-04T21:47:21.718Z,17.80
2018-06-04T21:49:50.536Z,17.80
2018-06-04T21:52:19.429Z,17.80
2018-06-04T21:57:16.778Z,17.80
2018-06-04T21:59:45.678Z,17.90
2018-06-04T22:02:14.558Z,17.90
2018-06-04T22:04:43.449Z,18.00
2018-06-04T22:07:12.281Z,18.00
2018-06-04T22:09:41.162Z,17.90
2018-06-04T22:12:09.988Z,17.80
2018-06-04T22:14:38.873Z,17.70
2018-06-04T22:17:07.848Z,17.50
2018-06-04T22:19:36.708Z,17.50
2018-06-04T22:27:02.560Z,17.40
2018-06-04T22:31:59.841Z,17.40
2018-06-04T22:34:28.752Z,17.40
2018-06-04T22:36:57.628Z,17.40
2018-06-04T22:39:26.481Z,17.40
2018-06-04T22:41:55.369Z,17.30
2018-06-04T22:44:24.225Z,17.20
2018-06-04T22:46:53.102Z,17.10
2018-06-04T22:49:21.960Z,17.10
2018-06-04T22:51:50.817Z,17.00
2018-06-04T22:54:19.700Z,17.10
2018-06-04T22:56:48.550Z,17.00
2018-06-04T22:59:17.461Z,17.10
2018-06-04T23:01:46.381Z,17.20
2018-06-04T23:04:15.240Z,17.10
2018-06-04T23:06:44.114Z,17.10
2018-06-04T23:09:12.960Z,17.00
2018-06-04T23:11:41.850Z,17.10
2018-06-04T23:14:10.708Z,17.10
2018-06-04T23:16:39.601Z,17.10
2018-06-04T23:19:08.483Z,17.10
2018-06-04T23:21:37.320Z,17.10
2018-06-04T23:26:34.692Z,17.00
2018-06-04T23:29:03.556Z,16.90
2018-06-04T23:31:32.438Z,16.80
2018-06-04T23:34:01.237Z,16.70
2018-06-04T23:36:30.152Z,16.60
2018-06-04T23:41:27.534Z,16.40
2018-06-04T23:43:56.390Z,16.30
2018-06-04T23:46:25.285Z,16.30
2018-06-04T23:48:54.169Z,16.30
2018-06-04T23:51:23.029Z,16.30
2018-06-04T23:53:51.901Z,16.30
2018-06-04T23:56:20.767Z,16.20
